createdAt,value
2019-04-26T00:00:49.904Z,99.90
2019-04-26T00:03:25.197Z,99.90
2019-04-26T00:05:54.705Z,99.90
2019-04-26T00:08:24.505Z,99.90
2019-04-26T00:11:16.117Z,99.90
2019-04-26T00:14:22.677Z,99.90
2019-04-26T00:16:59.577Z,99.90
2019-04-26T00:19:29.921Z,99.90
2019-04-26T00:22:00.179Z,99.90
2019-04-26T00:24:30.416Z,99.90
2019-04-26T00:26:59.958Z,99.90
2019-04-26T00:29:29.645Z,99.90
2019-04-26T00:31:59.490Z,99.90
2019-04-26T00:34:29.144Z,99.90
2019-04-26T00:36:59.201Z,99.90
2019-04-26T00:39:28.818Z,99.90
2019-04-26T00:41:58.347Z,99.90
2019-04-26T00:44:27.770Z,99.90
2019-04-26T00:46:57.531Z,99.90
2019-04-26T00:49:27.662Z,99.90
2019-04-26T00:51:57.566Z,99.90
2019-04-26T00:54:26.836Z,99.90
2019-04-26T00:56:56.702Z,99.90
2019-04-26T00:59:26.032Z,99.90
2019-04-26T01:02:00.306Z,99.90
2019-04-26T01:04:29.573Z,99.90
2019-04-26T01:06:59.589Z,99.90
2019-04-26T01:09:29.851Z,99.90
2019-04-26T01:11:59.502Z,99.90
2019-04-26T01:14:29.147Z,99.90
2019-04-26T01:16:58.722Z,99.90
2019-04-26T01:19:28.384Z,99.90
2019-04-26T01:21:59.803Z,99.90
2019-04-26T01:24:29.701Z,99.90
2019-04-26T01:26:59.131Z,99.90
2019-04-26T01:29:29.184Z,99.90
2019-04-26T01:32:07.540Z,99.90
2019-04-26T01:34:37.389Z,99.90
2019-04-26T01:37:06.885Z,99.90
2019-04-26T01:39:38.727Z,99.90
2019-04-26T01:42:17.257Z,99.90
2019-04-26T01:45:03.357Z,99.90
2019-04-26T01:47:32.735Z,99.90
2019-04-26T01:50:02.697Z,99.90
2019-04-26T01:52:31.995Z,99.90
2019-04-26T01:55:01.731Z,99.90
2019-04-26T01:57:31.605Z,99.90
2019-04-26T02:00:12.132Z,99.90
2019-04-26T02:03:06.541Z,99.90
2019-04-26T02:05:36.459Z,99.90
2019-04-26T02:08:06.419Z,99.90
2019-04-26T02:10:36.169Z,99.90
2019-04-26T02:13:05.559Z,99.90
2019-04-26T02:15:34.899Z,99.90
2019-04-26T02:18:04.696Z,99.90
2019-04-26T02:21:25.049Z,99.90
2019-04-26T02:24:24.947Z,99.90
2019-04-26T02:26:55.061Z,99.90
2019-04-26T02:29:26.871Z,99.90
2019-04-26T02:31:59.118Z,99.90
2019-04-26T02:34:31.092Z,99.90
2019-04-26T02:37:01.308Z,99.90
2019-04-26T02:39:35.968Z,99.90
2019-04-26T02:42:07.753Z,99.90
2019-04-26T02:44:46.498Z,99.90
2019-04-26T02:47:47.623Z,99.90
2019-04-26T02:50:21.948Z,99.90
2019-04-26T02:53:03.301Z,99.90
2019-04-26T02:55:57.830Z,99.90
2019-04-26T02:58:30.041Z,99.90
2019-04-26T03:00:59.816Z,99.90
2019-04-26T03:03:30.409Z,99.90
2019-04-26T03:06:00.840Z,99.90
2019-04-26T03:08:31.354Z,99.90
2019-04-26T03:11:17.492Z,99.90
2019-04-26T03:14:05.300Z,99.90
2019-04-26T03:17:01.718Z,99.90
2019-04-26T03:19:43.050Z,99.90
2019-04-26T03:22:48.664Z,99.90
2019-04-26T03:25:32.820Z,99.90
2019-04-26T03:28:12.160Z,99.90
2019-04-26T03:30:53.472Z,99.90
2019-04-26T03:33:54.228Z,99.90
2019-04-26T03:36:44.168Z,99.90
2019-04-26T03:39:25.538Z,99.90
2019-04-26T03:42:12.014Z,99.90
2019-04-26T03:45:16.855Z,99.90
2019-04-26T03:47:53.302Z,99.90
2019-04-26T03:50:27.577Z,99.90
2019-04-26T03:53:19.916Z,99.90
2019-04-26T03:57:08.029Z,99.90
2019-04-26T04:00:02.780Z,99.90
2019-04-26T04:03:08.812Z,99.90
2019-04-26T04:05:46.058Z,99.90
2019-04-26T04:08:21.513Z,99.90
2019-04-26T04:10:55.360Z,99.90
2019-04-26T04:13:42.677Z,99.90
2019-04-26T04:16:21.432Z,99.90
2019-04-26T04:18:55.014Z,99.90
2019-04-26T04:21:41.228Z,99.90
2019-04-26T04:24:15.915Z,99.90
2019-04-26T04:27:28.268Z,99.90
2019-04-26T04:30:38.690Z,99.90
2019-04-26T04:33:36.994Z,99.90
2019-04-26T04:36:12.647Z,99.90
2019-04-26T04:39:12.185Z,99.90
2019-04-26T04:41:55.627Z,99.90
2019-04-26T04:45:27.150Z,99.90
2019-04-26T04:48:28.939Z,99.90
2019-04-26T04:51:18.677Z,99.90
2019-04-26T04:53:52.276Z,99.90
2019-04-26T04:57:04.609Z,99.90
2019-04-26T05:00:28.192Z,99.90
2019-04-26T05:03:33.667Z,99.90
2019-04-26T05:06:31.116Z,99.90
2019-04-26T05:09:07.498Z,99.90
2019-04-26T05:12:04.705Z,99.90
2019-04-26T05:15:12.453Z,99.90
2019-04-26T05:17:53.965Z,99.90
2019-04-26T05:20:41.235Z,99.90
2019-04-26T05:23:45.738Z,99.90
2019-04-26T05:27:43.680Z,99.90
2019-04-26T05:31:08.299Z,99.90
2019-04-26T05:33:52.526Z,99.90
2019-04-26T05:37:03.465Z,99.90
2019-04-26T05:39:47.726Z,99.90
2019-04-26T05:42:59.965Z,99.90
2019-04-26T05:46:20.419Z,99.90
2019-04-26T05:49:46.344Z,99.90
2019-04-26T05:52:53.194Z,99.90
2019-04-26T05:55:46.288Z,99.90
2019-04-26T05:58:29.745Z,99.90
2019-04-26T06:01:53.168Z,99.90
2019-04-26T06:04:39.380Z,99.90
2019-04-26T06:07:22.527Z,99.90
2019-04-26T06:10:19.044Z,99.90
2019-04-26T06:13:42.542Z,99.90
2019-04-26T06:16:29.590Z,99.90
2019-04-26T06:19:13.026Z,99.90
2019-04-26T06:22:11.735Z,99.90
2019-04-26T06:25:26.867Z,99.90
2019-04-26T06:28:16.500Z,99.90
2019-04-26T06:30:49.552Z,99.90
2019-04-26T06:33:52.255Z,99.90
2019-04-26T06:36:27.613Z,99.90
2019-04-26T06:39:35.074Z,99.90
2019-04-26T06:42:37.083Z,99.90
2019-04-26T06:45:38.117Z,99.90
2019-04-26T06:48:17.034Z,99.90
2019-04-26T06:50:53.503Z,99.90
2019-04-26T06:53:40.244Z,99.90
2019-04-26T06:56:28.841Z,99.90
2019-04-26T06:59:17.070Z,99.90
2019-04-26T07:01:57.966Z,99.90
2019-04-26T07:05:07.714Z,99.90
2019-04-26T07:08:03.428Z,99.90
2019-04-26T07:11:21.765Z,99.90
2019-04-26T07:14:30.262Z,99.90
2019-04-26T07:17:06.337Z,99.90
2019-04-26T07:20:20.738Z,99.90
2019-04-26T07:23:53.343Z,99.90
2019-04-26T07:27:03.133Z,99.90
2019-04-26T07:29:58.749Z,99.90
2019-04-26T07:33:08.347Z,99.90
2019-04-26T07:35:49.675Z,99.90
2019-04-26T07:39:09.031Z,99.90
2019-04-26T07:42:05.990Z,99.90
2019-04-26T07:45:02.747Z,99.90
2019-04-26T07:48:19.606Z,99.90
2019-04-26T07:51:29.209Z,99.90
2019-04-26T07:54:39.454Z,99.90
2019-04-26T07:57:46.382Z,99.90
2019-04-26T08:00:20.623Z,99.90
2019-04-26T08:03:13.012Z,99.90
2019-04-26T08:05:59.228Z,99.90
2019-04-26T08:08:29.579Z,99.90
2019-04-26T08:11:20.620Z,99.90
2019-04-26T08:14:04.755Z,99.90
2019-04-26T08:17:00.962Z,99.90
2019-04-26T08:19:31.794Z,99.90
2019-04-26T08:22:14.796Z,99.90
2019-04-26T08:24:32.856Z,99.90
2019-04-26T08:27:13.760Z,99.90
2019-04-26T08:29:41.026Z,99.90
2019-04-26T08:32:15.699Z,99.80
2019-04-26T08:34:47.042Z,99.90
2019-04-26T08:37:36.511Z,99.90
2019-04-26T08:40:06.042Z,99.00
2019-04-26T08:42:46.513Z,99.90
2019-04-26T08:45:28.359Z,99.90
2019-04-26T08:48:17.492Z,97.10
2019-04-26T08:50:49.675Z,99.50
2019-04-26T08:53:19.756Z,92.20
2019-04-26T08:55:49.573Z,93.70
2019-04-26T08:58:21.186Z,93.10
2019-04-26T09:01:16.130Z,86.40
2019-04-26T09:03:51.723Z,91.60
2019-04-26T09:06:26.226Z,88.80
2019-04-26T09:08:55.924Z,84.20
2019-04-26T09:11:30.209Z,83.20
2019-04-26T09:13:56.883Z,83.40
2019-04-26T09:16:27.595Z,77.20
2019-04-26T09:18:59.647Z,77.40
2019-04-26T09:21:37.420Z,73.50
2019-04-26T09:24:28.561Z,69.50
2019-04-26T09:27:20.984Z,72.10
2019-04-26T09:30:04.911Z,73.60
2019-04-26T09:32:37.285Z,69.40
2019-04-26T09:35:06.928Z,68.80
2019-04-26T09:37:36.706Z,62.40
2019-04-26T09:40:10.668Z,60.50
2019-04-26T09:43:02.493Z,66.40
2019-04-26T09:45:53.584Z,62.40
2019-04-26T09:48:27.781Z,59.10
2019-04-26T09:50:57.615Z,56.90
2019-04-26T09:53:27.048Z,54.80
2019-04-26T09:55:57.137Z,53.50
2019-04-26T09:58:30.580Z,55.30
2019-04-26T10:00:58.972Z,56.60
2019-04-26T10:03:28.892Z,54.10
2019-04-26T10:05:58.671Z,52.00
2019-04-26T10:08:29.790Z,53.30
2019-04-26T10:10:59.500Z,52.00
2019-04-26T10:13:47.983Z,51.50
2019-04-26T10:16:42.157Z,53.30
2019-04-26T10:19:17.044Z,48.90
2019-04-26T10:21:46.931Z,49.40
2019-04-26T10:24:16.837Z,50.90
2019-04-26T10:26:46.644Z,48.50
2019-04-26T10:29:16.003Z,47.70
2019-04-26T10:31:47.554Z,47.50
2019-04-26T10:34:18.546Z,46.80
2019-04-26T10:36:48.478Z,46.80
2019-04-26T10:39:20.316Z,43.40
2019-04-26T10:41:50.020Z,42.60
2019-04-26T10:44:20.180Z,42.40
2019-04-26T10:46:55.744Z,42.20
2019-04-26T10:49:43.560Z,41.30
2019-04-26T10:52:19.492Z,41.70
2019-04-26T10:54:55.296Z,39.40
2019-04-26T10:57:34.114Z,38.70
2019-04-26T11:00:06.996Z,39.90
2019-04-26T11:02:36.375Z,39.30
2019-04-26T11:05:06.189Z,37.90
2019-04-26T11:07:35.903Z,38.30
2019-04-26T11:10:05.657Z,37.50
2019-04-26T11:12:35.572Z,37.10
2019-04-26T11:15:06.249Z,37.80
2019-04-26T11:17:35.563Z,37.30
2019-04-26T11:20:06.223Z,35.80
2019-04-26T11:22:37.632Z,34.00
2019-04-26T11:25:07.698Z,32.80
2019-04-26T11:27:40.250Z,33.40
2019-04-26T11:30:12.318Z,32.60
2019-04-26T11:32:41.088Z,31.40
2019-04-26T11:35:10.756Z,31.50
2019-04-26T11:37:40.431Z,31.60
2019-04-26T11:40:14.562Z,31.30
2019-04-26T11:42:45.623Z,32.10
2019-04-26T11:45:14.881Z,33.20
2019-04-26T11:47:55.953Z,33.30
2019-04-26T11:50:17.834Z,33.80
2019-04-26T11:52:47.882Z,34.40
2019-04-26T11:55:17.365Z,35.20
2019-04-26T11:57:47.441Z,36.10
2019-04-26T12:00:27.515Z,35.20
2019-04-26T12:02:56.935Z,34.90
2019-04-26T12:05:46.451Z,35.20
2019-04-26T12:08:19.502Z,34.90
2019-04-26T12:10:49.099Z,36.20
2019-04-26T12:13:21.296Z,36.90
2019-04-26T12:15:49.278Z,36.50
2019-04-26T12:18:18.959Z,37.00
2019-04-26T12:20:48.478Z,38.00
2019-04-26T12:23:20.659Z,38.20
2019-04-26T12:25:49.227Z,37.90
2019-04-26T12:28:18.512Z,36.60
2019-04-26T12:30:48.439Z,37.30
2019-04-26T12:33:17.697Z,37.00
2019-04-26T12:35:47.304Z,37.10
2019-04-26T12:38:17.286Z,37.20
2019-04-26T12:40:47.605Z,38.10
2019-04-26T12:43:20.032Z,38.00
2019-04-26T12:45:55.739Z,38.20
2019-04-26T12:48:25.438Z,38.40
2019-04-26T12:50:55.365Z,37.70
2019-04-26T12:53:26.695Z,37.80
2019-04-26T12:55:58.279Z,35.90
2019-04-26T12:58:27.969Z,34.70
2019-04-26T13:00:58.616Z,33.20
2019-04-26T13:03:29.283Z,32.60
2019-04-26T13:05:59.366Z,32.40
2019-04-26T13:08:29.179Z,32.90
2019-04-26T13:11:17.813Z,31.90
2019-04-26T13:14:03.816Z,31.40
2019-04-26T13:16:52.581Z,32.40
2019-04-26T13:19:22.509Z,31.30
2019-04-26T13:21:52.691Z,30.50
2019-04-26T13:24:22.377Z,30.10
2019-04-26T13:26:52.107Z,30.80
2019-04-26T13:29:23.137Z,31.10
2019-04-26T13:31:52.617Z,32.00
2019-04-26T13:34:21.897Z,31.70
2019-04-26T13:36:51.286Z,31.10
2019-04-26T13:39:22.554Z,31.50
2019-04-26T13:42:02.137Z,30.90
2019-04-26T13:45:01.084Z,30.60
2019-04-26T13:47:45.345Z,30.30
2019-04-26T13:50:30.777Z,31.70
2019-04-26T13:53:00.567Z,31.50
2019-04-26T13:55:33.590Z,31.80
2019-04-26T13:58:01.722Z,32.50
2019-04-26T14:00:32.789Z,32.90
2019-04-26T14:03:02.782Z,32.50
2019-04-26T14:05:32.040Z,32.10
2019-04-26T14:08:02.323Z,32.10
2019-04-26T14:10:31.675Z,32.40
2019-04-26T14:13:01.034Z,32.80
2019-04-26T14:15:30.744Z,32.90
2019-04-26T14:18:00.361Z,33.10
2019-04-26T14:20:31.169Z,33.90
2019-04-26T14:23:17.992Z,34.90
2019-04-26T14:26:05.277Z,34.80
2019-04-26T14:28:34.777Z,34.90
2019-04-26T14:31:04.277Z,34.70
2019-04-26T14:33:33.770Z,34.80
2019-04-26T14:36:03.155Z,34.70
2019-04-26T14:38:39.483Z,35.20
2019-04-26T14:41:06.253Z,35.40
2019-04-26T14:43:40.989Z,35.20
2019-04-26T14:46:10.467Z,35.40
2019-04-26T14:48:40.492Z,36.70
2019-04-26T14:51:12.291Z,36.00
2019-04-26T14:53:42.011Z,35.60
2019-04-26T14:56:11.345Z,35.40
2019-04-26T14:58:42.593Z,35.70
2019-04-26T15:01:17.853Z,35.50
2019-04-26T15:03:51.355Z,35.00
2019-04-26T15:06:35.037Z,36.10
2019-04-26T15:09:17.153Z,35.30
2019-04-26T15:11:51.111Z,35.40
2019-04-26T15:14:12.776Z,35.10
2019-04-26T15:16:44.992Z,36.40
2019-04-26T15:19:14.283Z,36.70
2019-04-26T15:21:43.725Z,36.70
2019-04-26T15:24:14.750Z,35.80
2019-04-26T15:26:44.052Z,35.90
2019-04-26T15:29:14.275Z,36.70
2019-04-26T15:31:43.573Z,37.30
2019-04-26T15:34:13.583Z,37.10
2019-04-26T15:36:43.447Z,37.30
2019-04-26T15:39:39.737Z,37.20
2019-04-26T15:42:29.251Z,39.10
2019-04-26T15:45:06.481Z,38.70
2019-04-26T15:48:05.659Z,39.00
2019-04-26T15:50:41.033Z,39.80
2019-04-26T15:53:14.540Z,39.50
2019-04-26T15:55:43.650Z,39.50
2019-04-26T15:58:13.545Z,40.10
2019-04-26T16:00:43.253Z,41.20
2019-04-26T16:03:13.283Z,42.70
2019-04-26T16:05:43.341Z,41.90
2019-04-26T16:08:13.143Z,42.80
2019-04-26T16:10:43.023Z,42.60
2019-04-26T16:13:20.683Z,42.20
2019-04-26T16:15:48.699Z,45.50
2019-04-26T16:18:17.436Z,46.70
2019-04-26T16:20:46.879Z,44.30
2019-04-26T16:23:16.626Z,45.00
2019-04-26T16:25:45.928Z,44.90
2019-04-26T16:28:34.182Z,44.30
2019-04-26T16:31:32.208Z,47.80
2019-04-26T16:34:10.850Z,45.40
2019-04-26T16:36:43.876Z,45.60
2019-04-26T16:39:10.474Z,46.30
2019-04-26T16:41:41.706Z,49.40
2019-04-26T16:44:13.027Z,48.70
2019-04-26T16:46:43.884Z,51.10
2019-04-26T16:49:14.259Z,52.20
2019-04-26T16:51:43.821Z,51.40
2019-04-26T16:54:20.650Z,53.50
2019-04-26T16:56:45.419Z,53.90
2019-04-26T16:59:22.560Z,63.50
2019-04-26T17:01:47.447Z,69.40
2019-04-26T17:04:20.227Z,59.80
2019-04-26T17:06:48.041Z,74.10
2019-04-26T17:09:18.087Z,65.80
2019-04-26T17:11:47.701Z,71.50
2019-04-26T17:14:17.414Z,65.80
2019-04-26T17:16:47.387Z,78.20
2019-04-26T17:19:19.767Z,76.30
2019-04-26T17:22:01.021Z,80.20
2019-04-26T17:24:51.009Z,88.60
2019-04-26T17:27:20.606Z,77.30
2019-04-26T17:29:50.059Z,81.10
2019-04-26T17:32:20.011Z,91.20
2019-04-26T17:34:49.473Z,91.20
2019-04-26T17:37:21.972Z,98.00
2019-04-26T17:39:52.119Z,97.20
2019-04-26T17:42:25.125Z,97.50
2019-04-26T17:44:53.149Z,96.40
2019-04-26T17:47:22.709Z,96.50
2019-04-26T17:49:52.476Z,98.80
2019-04-26T17:52:22.149Z,98.90
2019-04-26T17:54:52.550Z,99.90
2019-04-26T17:57:33.515Z,99.90
2019-04-26T18:00:06.406Z,99.90
2019-04-26T18:02:40.732Z,99.90
2019-04-26T18:05:00.558Z,99.90
2019-04-26T18:07:40.634Z,99.90
2019-04-26T18:10:02.446Z,99.90
2019-04-26T18:12:32.662Z,99.90
2019-04-26T18:15:04.998Z,99.90
2019-04-26T18:17:51.818Z,99.90
2019-04-26T18:20:29.084Z,99.90
2019-04-26T18:23:03.479Z,99.00
2019-04-26T18:25:34.030Z,99.00
2019-04-26T18:28:04.647Z,96.60
2019-04-26T18:30:34.111Z,99.90
2019-04-26T18:33:03.767Z,97.40
2019-04-26T18:35:33.766Z,99.90
2019-04-26T18:38:03.845Z,99.10
2019-04-26T18:40:56.127Z,98.50
2019-04-26T18:43:04.278Z,99.90
2019-04-26T18:45:34.036Z,99.90
2019-04-26T18:48:04.825Z,99.90
2019-04-26T18:50:36.538Z,99.90
2019-04-26T18:53:23.774Z,99.90
2019-04-26T18:55:53.566Z,99.90
2019-04-26T18:58:23.609Z,99.90
2019-04-26T19:00:53.376Z,99.90
2019-04-26T19:03:24.712Z,99.90
2019-04-26T19:05:58.353Z,99.90
2019-04-26T19:08:27.322Z,99.90
2019-04-26T19:11:00.998Z,99.90
2019-04-26T19:13:59.939Z,99.90
2019-04-26T19:16:46.369Z,99.90
2019-04-26T19:19:44.661Z,99.90
2019-04-26T19:22:16.867Z,99.90
2019-04-26T19:24:49.395Z,99.90
2019-04-26T19:27:20.863Z,99.90
2019-04-26T19:29:48.009Z,99.90
2019-04-26T19:32:17.865Z,99.90
2019-04-26T19:34:47.872Z,99.90
2019-04-26T19:37:17.504Z,99.90
2019-04-26T19:39:47.479Z,99.90
2019-04-26T19:42:16.799Z,99.90
2019-04-26T19:44:49.488Z,99.90
2019-04-26T19:47:35.401Z,99.90
2019-04-26T19:50:21.922Z,99.90
2019-04-26T19:53:01.870Z,99.90
2019-04-26T19:55:59.604Z,99.90
2019-04-26T19:58:32.112Z,99.90
2019-04-26T20:01:04.242Z,99.90
2019-04-26T20:03:33.845Z,99.90
2019-04-26T20:06:05.045Z,99.90
2019-04-26T20:08:41.765Z,99.90
2019-04-26T20:11:06.476Z,99.90
2019-04-26T20:13:35.734Z,99.90
2019-04-26T20:16:06.401Z,99.90
2019-04-26T20:18:38.815Z,99.90
2019-04-26T20:21:12.595Z,99.90
2019-04-26T20:23:43.800Z,99.90
2019-04-26T20:26:11.949Z,99.90
2019-04-26T20:28:42.474Z,99.90
2019-04-26T20:31:29.818Z,99.90
2019-04-26T20:34:01.328Z,99.90
2019-04-26T20:36:33.761Z,99.90
2019-04-26T20:39:01.883Z,99.90
2019-04-26T20:41:32.687Z,99.90
2019-04-26T20:44:07.011Z,99.90
2019-04-26T20:46:37.505Z,99.90
2019-04-26T20:49:07.910Z,99.90
2019-04-26T20:51:36.103Z,99.90
2019-04-26T20:54:05.390Z,99.90
2019-04-26T20:56:34.764Z,99.90
2019-04-26T20:59:04.476Z,99.90
2019-04-26T21:01:33.829Z,99.90
2019-04-26T21:04:03.114Z,99.90
2019-04-26T21:06:33.783Z,99.90
2019-04-26T21:09:06.492Z,99.90
2019-04-26T21:11:38.190Z,99.90
2019-04-26T21:14:08.676Z,99.90
2019-04-26T21:16:38.945Z,99.90
2019-04-26T21:19:12.765Z,99.90
2019-04-26T21:21:41.960Z,99.90
2019-04-26T21:24:14.926Z,99.90
2019-04-26T21:27:07.182Z,99.90
2019-04-26T21:29:59.397Z,99.90
2019-04-26T21:32:47.327Z,99.90
2019-04-26T21:35:20.425Z,99.90
2019-04-26T21:37:56.458Z,99.90
2019-04-26T21:40:35.506Z,99.90
2019-04-26T21:43:04.777Z,99.90
2019-04-26T21:45:34.882Z,99.90
2019-04-26T21:48:06.719Z,99.90
2019-04-26T21:50:38.590Z,99.90
2019-04-26T21:53:07.038Z,99.90
2019-04-26T21:55:38.662Z,99.90
2019-04-26T21:58:07.855Z,99.90
2019-04-26T22:00:54.667Z,99.90
2019-04-26T22:03:24.795Z,99.90
2019-04-26T22:05:54.207Z,99.90
2019-04-26T22:08:27.236Z,99.90
2019-04-26T22:10:56.575Z,99.90
2019-04-26T22:13:37.246Z,99.90
2019-04-26T22:16:29.267Z,99.90
2019-04-26T22:18:59.458Z,99.90
2019-04-26T22:21:35.203Z,99.90
2019-04-26T22:24:13.476Z,99.90
2019-04-26T22:26:47.656Z,99.90
2019-04-26T22:29:16.772Z,99.90
2019-04-26T22:31:45.724Z,99.90
2019-04-26T22:34:15.456Z,99.90
2019-04-26T22:36:45.262Z,99.90
2019-04-26T22:39:18.239Z,99.90
2019-04-26T22:41:48.522Z,99.90
2019-04-26T22:44:31.252Z,99.90
2019-04-26T22:47:16.650Z,99.90
2019-04-26T22:49:46.685Z,99.90
2019-04-26T22:52:16.760Z,99.90
2019-04-26T22:54:46.637Z,99.90
2019-04-26T22:57:16.775Z,99.90
2019-04-26T22:59:50.097Z,99.90
2019-04-26T23:02:23.583Z,99.90
2019-04-26T23:04:49.109Z,99.90
2019-04-26T23:07:24.706Z,99.90
2019-04-26T23:09:55.137Z,99.90
2019-04-26T23:12:44.032Z,99.90
2019-04-26T23:15:31.185Z,99.90
2019-04-26T23:18:18.656Z,99.90
2019-04-26T23:20:53.321Z,99.90
2019-04-26T23:23:23.664Z,99.90
2019-04-26T23:25:54.178Z,99.90
2019-04-26T23:28:27.618Z,99.90
2019-04-26T23:30:55.208Z,99.90
2019-04-26T23:33:24.818Z,99.90
2019-04-26T23:35:54.392Z,99.90
2019-04-26T23:38:23.686Z,99.90
2019-04-26T23:40:57.226Z,99.90
2019-04-26T23:43:25.668Z,99.90
2019-04-26T23:45:55.450Z,99.90
2019-04-26T23:48:25.627Z,99.90
2019-04-26T23:50:54.930Z,99.90
2019-04-26T23:53:24.998Z,99.90
2019-04-26T23:55:54.265Z,99.90
2019-04-26T23:58:23.533Z,99.90
